createdAt,value
2018-07-23T00:00:57.100Z,1010.18
2018-07-23T00:01:57.087Z,1010.20
2018-07-23T00:02:57.075Z,1010.18
2018-07-23T00:03:57.063Z,1010.21
2018-07-23T00:04:57.051Z,1010.22
2018-07-23T00:05:57.040Z,1010.18
2018-07-23T00:06:57.027Z,1010.22
2018-07-23T00:07:57.015Z,1010.21
2018-07-23T00:08:57.003Z,1010.20
2018-07-23T00:09:56.994Z,1010.19
2018-07-23T00:10:56.981Z,1010.21
2018-07-23T00:11:56.970Z,1010.20
2018-07-23T00:12:56.955Z,1010.19
2018-07-23T00:13:56.952Z,1010.17
2018-07-23T00:14:56.933Z,1010.17
2018-07-23T00:15:56.919Z,1010.19
2018-07-23T00:16:56.906Z,1010.18
2018-07-23T00:17:56.895Z,1010.18
2018-07-23T00:18:56.885Z,1010.18
2018-07-23T00:19:56.873Z,1010.20
2018-07-23T00:20:56.858Z,1010.23
2018-07-23T00:21:56.848Z,1010.20
2018-07-23T00:22:56.835Z,1010.23
2018-07-23T00:23:56.826Z,1010.19
2018-07-23T00:24:56.812Z,1010.22
2018-07-23T00:25:56.800Z,1010.18
2018-07-23T00:26:56.789Z,1010.18
2018-07-23T00:27:56.777Z,1010.18
2018-07-23T00:28:56.763Z,1010.21
2018-07-23T00:29:56.758Z,1010.21
2018-07-23T00:30:56.740Z,1010.22
2018-07-23T00:31:56.732Z,1010.23
2018-07-23T00:32:56.716Z,1010.25
2018-07-23T00:33:56.703Z,1010.20
2018-07-23T00:34:56.692Z,1010.18
2018-07-23T00:35:56.686Z,1010.23
2018-07-23T00:36:56.669Z,1010.21
2018-07-23T00:37:56.659Z,1010.20
2018-07-23T00:38:56.645Z,1010.18
2018-07-23T00:39:56.633Z,1010.18
2018-07-23T00:40:56.619Z,1010.18
2018-07-23T00:41:56.611Z,1010.19
2018-07-23T00:42:56.596Z,1010.17
2018-07-23T00:43:56.583Z,1010.21
2018-07-23T00:44:56.571Z,1010.17
2018-07-23T00:45:56.560Z,1010.20
2018-07-23T00:46:56.547Z,1010.18
2018-07-23T00:47:56.536Z,1010.16
2018-07-23T00:48:56.523Z,1010.18
2018-07-23T00:49:56.513Z,1010.16
2018-07-23T00:50:56.497Z,1010.17
2018-07-23T00:51:56.497Z,1010.15
2018-07-23T00:52:56.475Z,1010.19
2018-07-23T00:53:56.462Z,1010.17
2018-07-23T00:54:56.482Z,1010.19
2018-07-23T00:55:56.438Z,1010.17
2018-07-23T00:56:56.423Z,1010.23
2018-07-23T00:57:56.416Z,1010.20
2018-07-23T00:58:56.406Z,1010.20
2018-07-23T00:59:56.390Z,1010.20
2018-07-23T01:00:56.378Z,1010.22
2018-07-23T01:01:56.365Z,1010.20
2018-07-23T01:02:56.352Z,1010.24
2018-07-23T01:03:56.340Z,1010.19
2018-07-23T01:04:56.328Z,1010.20
2018-07-23T01:05:56.315Z,1010.20
2018-07-23T01:06:56.304Z,1010.20
2018-07-23T01:07:56.291Z,1010.22
2018-07-23T01:08:56.277Z,1010.24
2018-07-23T01:09:56.267Z,1010.23
2018-07-23T01:10:56.255Z,1010.22
2018-07-23T01:11:56.243Z,1010.24
2018-07-23T01:12:56.230Z,1010.19
2018-07-23T01:13:56.216Z,1010.23
2018-07-23T01:14:56.207Z,1010.23
2018-07-23T01:15:56.199Z,1010.24
2018-07-23T01:16:56.181Z,1010.26
2018-07-23T01:17:56.169Z,1010.23
2018-07-23T01:18:56.157Z,1010.24
2018-07-23T01:19:56.142Z,1010.24
2018-07-23T01:20:56.134Z,1010.25
2018-07-23T01:21:56.120Z,1010.27
2018-07-23T01:22:56.107Z,1010.28
2018-07-23T01:23:56.096Z,1010.31
2018-07-23T01:24:56.081Z,1010.26
2018-07-23T01:25:56.080Z,1010.29
2018-07-23T01:26:56.058Z,1010.28
2018-07-23T01:27:56.049Z,1010.28
2018-07-23T01:28:56.033Z,1010.28
2018-07-23T01:29:56.021Z,1010.30
2018-07-23T01:30:56.013Z,1010.30
2018-07-23T01:31:56.003Z,1010.31
2018-07-23T01:32:55.989Z,1010.34
2018-07-23T01:33:55.970Z,1010.35
2018-07-23T01:34:55.958Z,1010.33
2018-07-23T01:35:55.946Z,1010.34
2018-07-23T01:36:55.933Z,1010.32
2018-07-23T01:37:55.920Z,1010.33
2018-07-23T01:38:55.911Z,1010.31
2018-07-23T01:39:55.899Z,1010.30
2018-07-23T01:40:55.882Z,1010.31
2018-07-23T01:41:55.871Z,1010.26
2018-07-23T01:42:55.860Z,1010.25
2018-07-23T01:43:55.845Z,1010.31
2018-07-23T01:44:55.832Z,1010.31
2018-07-23T01:45:55.819Z,1010.31
2018-07-23T01:46:55.807Z,1010.33
2018-07-23T01:47:55.797Z,1010.32
2018-07-23T01:48:55.785Z,1010.32
2018-07-23T01:49:55.771Z,1010.32
2018-07-23T01:50:55.758Z,1010.34
2018-07-23T01:51:55.744Z,1010.30
2018-07-23T01:52:55.731Z,1010.27
2018-07-23T01:53:55.720Z,1010.25
2018-07-23T01:54:55.716Z,1010.26
2018-07-23T01:55:55.695Z,1010.28
2018-07-23T01:56:55.682Z,1010.29
2018-07-23T01:57:55.669Z,1010.32
2018-07-23T01:58:55.662Z,1010.32
2018-07-23T01:59:55.643Z,1010.30
2018-07-23T02:00:55.629Z,1010.32
2018-07-23T02:01:55.618Z,1010.32
2018-07-23T02:02:55.610Z,1010.31
2018-07-23T02:03:55.594Z,1010.30
2018-07-23T02:04:55.580Z,1010.32
2018-07-23T02:05:55.567Z,1010.32
2018-07-23T02:06:55.559Z,1010.35
2018-07-23T02:07:55.543Z,1010.33
2018-07-23T02:08:55.531Z,1010.35
2018-07-23T02:09:55.517Z,1010.35
2018-07-23T02:10:55.505Z,1010.31
2018-07-23T02:11:55.497Z,1010.34
2018-07-23T02:12:55.478Z,1010.30
2018-07-23T02:13:55.466Z,1010.34
2018-07-23T02:14:55.459Z,1010.28
2018-07-23T02:15:55.441Z,1010.30
2018-07-23T02:16:55.429Z,1010.30
2018-07-23T02:17:55.415Z,1010.32
2018-07-23T02:18:55.403Z,1010.32
2018-07-23T02:19:55.395Z,1010.33
2018-07-23T02:20:55.378Z,1010.38
2018-07-23T02:21:55.367Z,1010.39
2018-07-23T02:22:55.355Z,1010.36
2018-07-23T02:23:55.342Z,1010.41
2018-07-23T02:24:55.329Z,1010.37
2018-07-23T02:25:55.316Z,1010.36
2018-07-23T02:26:55.304Z,1010.39
2018-07-23T02:27:55.292Z,1010.43
2018-07-23T02:28:55.278Z,1010.36
2018-07-23T02:29:55.268Z,1010.40
2018-07-23T02:30:55.254Z,1010.38
2018-07-23T02:31:55.246Z,1010.40
2018-07-23T02:32:55.230Z,1010.41
2018-07-23T02:33:55.216Z,1010.43
2018-07-23T02:34:55.200Z,1010.42
2018-07-23T02:35:55.192Z,1010.42
2018-07-23T02:36:55.179Z,1010.46
2018-07-23T02:37:55.163Z,1010.42
2018-07-23T02:38:55.151Z,1010.48
2018-07-23T02:39:55.137Z,1010.46
2018-07-23T02:40:55.125Z,1010.51
2018-07-23T02:41:55.113Z,1010.49
2018-07-23T02:42:55.099Z,1010.50
2018-07-23T02:43:55.090Z,1010.51
2018-07-23T02:44:55.074Z,1010.49
2018-07-23T02:45:55.063Z,1010.47
2018-07-23T02:46:55.051Z,1010.46
2018-07-23T02:47:55.039Z,1010.46
2018-07-23T02:48:55.023Z,1010.46
2018-07-23T02:49:55.013Z,1010.47
2018-07-23T02:50:54.999Z,1010.47
2018-07-23T02:51:54.990Z,1010.46
2018-07-23T02:52:54.980Z,1010.49
2018-07-23T02:53:54.963Z,1010.50
2018-07-23T02:54:54.948Z,1010.53
2018-07-23T02:55:54.934Z,1010.57
2018-07-23T02:56:54.922Z,1010.56
2018-07-23T02:57:54.908Z,1010.56
2018-07-23T02:58:54.902Z,1010.59
2018-07-23T02:59:54.886Z,1010.58
2018-07-23T03:00:54.871Z,1010.58
2018-07-23T03:01:54.862Z,1010.60
2018-07-23T03:02:54.846Z,1010.61
2018-07-23T03:03:54.835Z,1010.61
2018-07-23T03:04:54.821Z,1010.66
2018-07-23T03:05:54.809Z,1010.68
2018-07-23T03:06:54.801Z,1010.62
2018-07-23T03:07:54.784Z,1010.64
2018-07-23T03:08:54.775Z,1010.62
2018-07-23T03:09:54.762Z,1010.62
2018-07-23T03:10:54.746Z,1010.65
2018-07-23T03:11:54.741Z,1010.60
2018-07-23T03:12:54.723Z,1010.63
2018-07-23T03:13:54.708Z,1010.61
2018-07-23T03:14:54.695Z,1010.64
2018-07-23T03:15:54.684Z,1010.61
2018-07-23T03:16:54.671Z,1010.58
2018-07-23T03:17:54.659Z,1010.57
2018-07-23T03:18:54.652Z,1010.60
2018-07-23T03:19:54.633Z,1010.60
2018-07-23T03:20:54.620Z,1010.62
2018-07-23T03:21:54.708Z,1010.61
2018-07-23T03:22:54.595Z,1010.60
2018-07-23T03:23:54.584Z,1010.61
2018-07-23T03:24:54.570Z,1010.62
2018-07-23T03:25:54.556Z,1010.60
2018-07-23T03:26:54.545Z,1010.63
2018-07-23T03:27:54.535Z,1010.62
2018-07-23T03:28:54.517Z,1010.61
2018-07-23T03:29:54.510Z,1010.63
2018-07-23T03:30:54.494Z,1010.64
2018-07-23T03:31:54.485Z,1010.61
2018-07-23T03:32:54.468Z,1010.64
2018-07-23T03:33:54.456Z,1010.63
2018-07-23T03:34:54.443Z,1010.64
2018-07-23T03:35:54.430Z,1010.61
2018-07-23T03:36:54.421Z,1010.66
2018-07-23T03:37:54.405Z,1010.65
2018-07-23T03:38:54.494Z,1010.66
2018-07-23T03:39:54.383Z,1010.67
2018-07-23T03:40:54.369Z,1010.66
2018-07-23T03:41:54.354Z,1010.66
2018-07-23T03:43:50.732Z,1010.72
2018-07-23T03:44:50.711Z,1010.73
2018-07-23T03:45:50.700Z,1010.73
2018-07-23T03:46:50.691Z,1010.73
2018-07-23T03:47:50.673Z,1010.76
2018-07-23T03:48:50.663Z,1010.76
2018-07-23T03:49:50.651Z,1010.77
2018-07-23T03:50:50.636Z,1010.77
2018-07-23T03:51:50.626Z,1010.77
2018-07-23T03:52:50.611Z,1010.76
2018-07-23T03:53:50.598Z,1010.82
2018-07-23T03:54:50.589Z,1010.77
2018-07-23T03:55:50.574Z,1010.77
2018-07-23T03:56:50.561Z,1010.79
2018-07-23T03:57:50.548Z,1010.77
2018-07-23T03:58:50.538Z,1010.76
2018-07-23T03:59:50.525Z,1010.74
2018-07-23T04:00:50.511Z,1010.74
2018-07-23T04:01:50.500Z,1010.79
2018-07-23T04:02:50.494Z,1010.80
2018-07-23T04:03:50.473Z,1010.82
2018-07-23T04:04:50.463Z,1010.83
2018-07-23T04:05:50.449Z,1010.86
2018-07-23T04:06:50.442Z,1010.83
2018-07-23T04:07:50.427Z,1010.83
2018-07-23T04:08:50.414Z,1010.89
2018-07-23T04:09:50.403Z,1010.91
2018-07-23T04:10:50.449Z,1010.94
2018-07-23T04:11:50.379Z,1010.92
2018-07-23T04:12:50.363Z,1010.92
2018-07-23T04:13:50.353Z,1010.94
2018-07-23T04:14:50.340Z,1010.91
2018-07-23T04:15:50.324Z,1010.91
2018-07-23T04:16:50.312Z,1010.97
2018-07-23T04:17:50.299Z,1010.93
2018-07-23T04:18:50.286Z,1010.91
2018-07-23T04:19:50.283Z,1010.92
2018-07-23T04:20:50.262Z,1010.95
2018-07-23T04:21:50.251Z,1010.92
2018-07-23T04:22:50.241Z,1010.91
2018-07-23T04:23:50.224Z,1010.94
2018-07-23T04:24:50.216Z,1010.96
2018-07-23T04:25:50.202Z,1010.97
2018-07-23T04:26:50.187Z,1010.95
2018-07-23T04:27:50.181Z,1011.02
2018-07-23T04:28:50.165Z,1010.99
2018-07-23T04:29:50.151Z,1011.01
2018-07-23T04:30:50.139Z,1011.04
2018-07-23T04:31:50.130Z,1011.03
2018-07-23T04:32:50.114Z,1011.05
2018-07-23T04:33:50.102Z,1011.01
2018-07-23T04:34:50.091Z,1011.05
2018-07-23T04:35:50.076Z,1011.06
2018-07-23T04:36:50.066Z,1011.09
2018-07-23T04:37:50.064Z,1011.07
2018-07-23T04:38:50.038Z,1011.07
2018-07-23T04:39:50.034Z,1011.13
2018-07-23T04:40:50.014Z,1011.13
2018-07-23T04:41:50.008Z,1011.11
2018-07-23T04:42:49.992Z,1011.14
2018-07-23T04:43:49.978Z,1011.18
2018-07-23T04:44:49.966Z,1011.16
2018-07-23T04:45:49.954Z,1011.15
2018-07-23T04:46:49.941Z,1011.18
2018-07-23T04:47:49.928Z,1011.20
2018-07-23T04:48:49.917Z,1011.18
2018-07-23T04:49:49.904Z,1011.22
2018-07-23T04:50:49.893Z,1011.24
2018-07-23T04:51:49.881Z,1011.24
2018-07-23T04:52:49.868Z,1011.23
2018-07-23T04:53:49.855Z,1011.24
2018-07-23T04:54:49.844Z,1011.24
2018-07-23T04:55:49.833Z,1011.29
2018-07-23T04:56:49.920Z,1011.27
2018-07-23T04:57:49.807Z,1011.28
2018-07-23T04:58:49.796Z,1011.28
2018-07-23T04:59:49.782Z,1011.32
2018-07-23T05:00:49.770Z,1011.31
2018-07-23T05:01:49.758Z,1011.33
2018-07-23T05:02:49.746Z,1011.32
2018-07-23T05:03:49.733Z,1011.31
2018-07-23T05:04:49.720Z,1011.35
2018-07-23T05:05:49.707Z,1011.33
2018-07-23T05:06:49.699Z,1011.37
2018-07-23T05:07:49.688Z,1011.36
2018-07-23T05:08:49.672Z,1011.35
2018-07-23T05:09:49.659Z,1011.33
2018-07-23T05:10:49.647Z,1011.38
2018-07-23T05:11:49.638Z,1011.41
2018-07-23T05:12:49.626Z,1011.41
2018-07-23T05:13:49.612Z,1011.44
2018-07-23T05:14:49.597Z,1011.41
2018-07-23T05:15:49.587Z,1011.38
2018-07-23T05:16:49.581Z,1011.39
2018-07-23T05:17:49.562Z,1011.39
2018-07-23T05:18:49.552Z,1011.36
2018-07-23T05:19:49.541Z,1011.34
2018-07-23T05:20:49.526Z,1011.37
2018-07-23T05:21:49.512Z,1011.34
2018-07-23T05:22:49.504Z,1011.30
2018-07-23T05:23:49.505Z,1011.35
2018-07-23T05:24:49.477Z,1011.39
2018-07-23T05:25:49.522Z,1011.36
2018-07-23T05:26:49.454Z,1011.36
2018-07-23T05:27:49.442Z,1011.42
2018-07-23T05:28:49.431Z,1011.43
2018-07-23T05:29:49.421Z,1011.44
2018-07-23T05:30:49.407Z,1011.41
2018-07-23T05:31:49.397Z,1011.44
2018-07-23T05:32:49.382Z,1011.45
2018-07-23T05:33:49.381Z,1011.47
2018-07-23T05:34:49.356Z,1011.47
2018-07-23T05:35:49.344Z,1011.50
2018-07-23T05:36:49.331Z,1011.48
2018-07-23T05:37:49.321Z,1011.48
2018-07-23T05:38:49.307Z,1011.45
2018-07-23T05:39:49.296Z,1011.48
2018-07-23T05:40:49.283Z,1011.45
2018-07-23T05:41:49.271Z,1011.48
2018-07-23T05:42:49.261Z,1011.46
2018-07-23T05:43:49.246Z,1011.48
2018-07-23T05:44:49.235Z,1011.51
2018-07-23T05:45:49.222Z,1011.50
2018-07-23T05:46:49.212Z,1011.47
2018-07-23T05:47:49.200Z,1011.49
2018-07-23T05:48:49.187Z,1011.53
2018-07-23T05:49:49.176Z,1011.54
2018-07-23T05:50:49.163Z,1011.50
2018-07-23T05:51:49.150Z,1011.49
2018-07-23T05:52:49.139Z,1011.47
2018-07-23T05:53:49.129Z,1011.46
2018-07-23T05:54:49.115Z,1011.44
2018-07-23T05:55:49.101Z,1011.42
2018-07-23T05:56:49.090Z,1011.43
2018-07-23T05:57:49.079Z,1011.45
2018-07-23T05:58:49.118Z,1011.44
2018-07-23T05:59:49.054Z,1011.48
2018-07-23T06:00:49.042Z,1011.48
2018-07-23T06:01:49.032Z,1011.46
2018-07-23T06:02:49.019Z,1011.50
2018-07-23T06:03:49.007Z,1011.54
2018-07-23T06:04:48.996Z,1011.52
2018-07-23T06:05:48.984Z,1011.54
2018-07-23T06:06:49.105Z,1011.54
2018-07-23T06:07:48.965Z,1011.56
2018-07-23T06:08:48.949Z,1011.52
2018-07-23T06:09:48.937Z,1011.60
2018-07-23T06:10:48.924Z,1011.58
2018-07-23T06:11:48.912Z,1011.58
2018-07-23T06:12:48.901Z,1011.60
2018-07-23T06:13:48.890Z,1011.56
2018-07-23T06:14:48.875Z,1011.60
2018-07-23T06:15:48.869Z,1011.59
2018-07-23T06:16:48.860Z,1011.57
2018-07-23T06:17:48.841Z,1011.57
2018-07-23T06:18:48.829Z,1011.59
2018-07-23T06:19:48.821Z,1011.61
2018-07-23T06:20:48.808Z,1011.57
2018-07-23T06:21:48.795Z,1011.55
2018-07-23T06:22:48.781Z,1011.59
2018-07-23T06:23:48.770Z,1011.60
2018-07-23T06:24:48.761Z,1011.58
2018-07-23T06:25:48.805Z,1011.61
2018-07-23T06:26:48.737Z,1011.60
2018-07-23T06:27:48.722Z,1011.58
2018-07-23T06:28:48.713Z,1011.59
2018-07-23T06:29:48.703Z,1011.59
2018-07-23T06:30:48.702Z,1011.59
2018-07-23T06:31:48.679Z,1011.61
2018-07-23T06:32:48.667Z,1011.63
2018-07-23T06:33:48.685Z,1011.64
2018-07-23T06:34:48.650Z,1011.63
2018-07-23T06:35:48.635Z,1011.63
2018-07-23T06:36:48.620Z,1011.64
2018-07-23T06:37:48.609Z,1011.67
2018-07-23T06:38:48.600Z,1011.61
2018-07-23T06:39:48.585Z,1011.60
2018-07-23T06:40:48.573Z,1011.64
2018-07-23T06:41:48.570Z,1011.63
2018-07-23T06:42:48.553Z,1011.60
2018-07-23T06:43:48.541Z,1011.63
2018-07-23T06:44:48.529Z,1011.61
2018-07-23T06:45:48.517Z,1011.62
2018-07-23T06:46:48.507Z,1011.64
2018-07-23T06:47:48.494Z,1011.64
2018-07-23T06:48:48.484Z,1011.65
2018-07-23T06:49:48.472Z,1011.65
2018-07-23T06:50:48.461Z,1011.66
2018-07-23T06:51:48.448Z,1011.65
2018-07-23T06:52:48.438Z,1011.61
2018-07-23T06:53:48.428Z,1011.62
2018-07-23T06:54:48.415Z,1011.66
2018-07-23T06:55:48.405Z,1011.66
2018-07-23T06:56:48.397Z,1011.67
2018-07-23T06:57:48.383Z,1011.68
2018-07-23T06:58:48.372Z,1011.67
2018-07-23T06:59:48.359Z,1011.69
2018-07-23T07:00:48.349Z,1011.68
2018-07-23T07:01:48.339Z,1011.68
2018-07-23T07:02:48.328Z,1011.70
2018-07-23T07:03:48.317Z,1011.69
2018-07-23T07:04:48.308Z,1011.66
2018-07-23T07:05:48.294Z,1011.63
2018-07-23T07:06:48.283Z,1011.66
2018-07-23T07:07:48.271Z,1011.67
2018-07-23T07:08:48.260Z,1011.66
2018-07-23T07:09:48.249Z,1011.63
2018-07-23T07:10:48.287Z,1011.67
2018-07-23T07:11:48.265Z,1011.69
2018-07-23T07:12:48.219Z,1011.68
2018-07-23T07:13:48.208Z,1011.67
2018-07-23T07:14:48.209Z,1011.71
2018-07-23T07:15:48.187Z,1011.74
2018-07-23T07:16:48.190Z,1011.71
2018-07-23T07:17:48.166Z,1011.76
2018-07-23T07:18:48.156Z,1011.75
2018-07-23T07:19:48.210Z,1011.71
2018-07-23T07:20:48.136Z,1011.70
2018-07-23T07:21:48.131Z,1011.71
2018-07-23T07:22:48.118Z,1011.73
2018-07-23T07:23:48.108Z,1011.77
2018-07-23T07:24:48.095Z,1011.76
2018-07-23T07:25:48.090Z,1011.74
2018-07-23T07:26:48.073Z,1011.70
2018-07-23T07:27:48.061Z,1011.73
2018-07-23T07:28:48.052Z,1011.75
2018-07-23T07:29:48.041Z,1011.76
2018-07-23T07:30:48.029Z,1011.77
2018-07-23T07:31:48.022Z,1011.77
2018-07-23T07:32:48.014Z,1011.80
2018-07-23T07:33:48.003Z,1011.80
2018-07-23T07:34:48.028Z,1011.76
2018-07-23T07:35:47.989Z,1011.81
2018-07-23T07:36:47.975Z,1011.84
2018-07-23T07:37:47.962Z,1011.82
2018-07-23T07:38:47.950Z,1011.82
2018-07-23T07:39:47.938Z,1011.77
2018-07-23T07:40:47.928Z,1011.80
2018-07-23T07:41:47.917Z,1011.81
2018-07-23T07:42:47.907Z,1011.79
2018-07-23T07:43:47.903Z,1011.75
2018-07-23T07:44:47.889Z,1011.78
2018-07-23T07:45:47.877Z,1011.77
2018-07-23T07:46:47.869Z,1011.76
2018-07-23T07:47:47.860Z,1011.74
2018-07-23T07:48:47.850Z,1011.75
2018-07-23T07:49:47.841Z,1011.76
2018-07-23T07:50:47.832Z,1011.79
2018-07-23T07:51:47.824Z,1011.73
2018-07-23T07:52:47.812Z,1011.72
2018-07-23T07:53:47.802Z,1011.74
2018-07-23T07:54:47.792Z,1011.73
2018-07-23T07:55:47.782Z,1011.79
2018-07-23T07:56:47.774Z,1011.78
2018-07-23T07:57:47.762Z,1011.78
2018-07-23T07:58:47.773Z,1011.83
2018-07-23T07:59:47.744Z,1011.83
2018-07-23T08:00:47.735Z,1011.84
2018-07-23T08:01:47.727Z,1013.28
2018-07-23T08:02:47.722Z,1017.55
2018-07-23T08:03:47.710Z,1022.01
2018-07-23T08:04:47.701Z,1024.93
2018-07-23T08:05:47.693Z,1025.06
2018-07-23T08:06:47.682Z,1024.71
2018-07-23T08:07:47.674Z,1024.06
2018-07-23T08:08:47.666Z,1024.02
2018-07-23T08:09:47.661Z,1011.68
2018-07-23T08:10:47.653Z,1011.75
2018-07-23T08:11:47.643Z,1011.70
2018-07-23T08:12:47.636Z,1011.71
2018-07-23T08:13:47.634Z,1011.68
2018-07-23T08:14:47.621Z,1011.69
2018-07-23T08:15:47.627Z,1011.70
2018-07-23T08:16:47.607Z,1011.73
2018-07-23T08:17:47.613Z,1011.75
2018-07-23T08:18:47.594Z,1011.75
2018-07-23T08:19:47.585Z,1011.75
2018-07-23T08:20:47.577Z,1011.74
2018-07-23T08:21:47.589Z,1011.70
2018-07-23T08:22:47.568Z,1011.73
2018-07-23T08:23:47.555Z,1011.72
2018-07-23T08:24:47.548Z,1011.72
2018-07-23T08:25:47.542Z,1011.70
2018-07-23T08:26:47.535Z,1011.71
2018-07-23T08:27:47.587Z,1011.74
2018-07-23T08:28:47.530Z,1011.75
2018-07-23T08:29:47.515Z,1011.84
2018-07-23T08:30:47.506Z,1011.81
2018-07-23T08:31:47.651Z,1011.79
2018-07-23T08:32:47.492Z,1011.83
2018-07-23T08:33:47.485Z,1011.87
2018-07-23T08:34:47.477Z,1011.87
2018-07-23T08:35:47.469Z,1011.88
2018-07-23T08:36:47.463Z,1011.87
2018-07-23T08:37:47.459Z,1011.90
2018-07-23T08:38:47.449Z,1011.86
2018-07-23T08:39:47.440Z,1011.89
2018-07-23T08:40:47.436Z,1011.95
2018-07-23T08:41:47.469Z,1011.96
2018-07-23T08:42:47.418Z,1011.98
2018-07-23T08:43:47.412Z,1011.98
2018-07-23T08:44:47.403Z,1012.84
2018-07-23T08:45:47.399Z,1012.91
2018-07-23T08:46:47.392Z,1012.94
2018-07-23T08:47:47.382Z,1012.96
2018-07-23T08:48:47.373Z,1012.98
2018-07-23T08:49:47.366Z,1012.95
2018-07-23T08:50:47.358Z,1012.93
2018-07-23T08:51:47.354Z,1012.99
2018-07-23T08:52:47.349Z,1012.98
2018-07-23T08:53:47.344Z,1012.95
2018-07-23T08:54:47.335Z,1012.95
2018-07-23T08:55:47.333Z,1012.99
2018-07-23T08:56:47.336Z,1012.97
2018-07-23T08:57:47.323Z,1013.01
2018-07-23T08:58:47.317Z,1013.03
2018-07-23T08:59:47.313Z,1012.97
2018-07-23T09:00:47.309Z,1013.04
2018-07-23T09:01:47.304Z,1012.98
2018-07-23T09:02:47.303Z,1012.98
2018-07-23T09:03:47.300Z,1012.98
2018-07-23T09:04:47.293Z,1012.91
2018-07-23T09:05:47.294Z,1012.97
2018-07-23T09:06:47.338Z,1012.94
2018-07-23T09:07:47.285Z,1012.95
2018-07-23T09:08:47.347Z,1012.95
2018-07-23T09:09:47.282Z,1012.97
2018-07-23T09:10:47.275Z,1012.89
2018-07-23T09:11:47.273Z,1012.87
2018-07-23T09:12:47.272Z,1012.94
2018-07-23T09:13:47.472Z,1012.83
2018-07-23T09:14:47.266Z,1012.83
2018-07-23T09:15:47.268Z,1012.80
2018-07-23T09:16:47.263Z,1012.81
2018-07-23T09:17:47.267Z,1012.81
2018-07-23T09:18:47.267Z,1012.80
2018-07-23T09:19:47.259Z,1012.88
2018-07-23T09:20:47.257Z,1012.89
2018-07-23T09:21:47.258Z,1012.91
2018-07-23T09:22:47.254Z,1012.94
2018-07-23T09:23:47.279Z,1012.97
2018-07-23T09:24:47.257Z,1012.99
2018-07-23T09:25:47.255Z,1013.03
2018-07-23T09:26:47.251Z,1013.01
2018-07-23T09:27:47.255Z,1013.06
2018-07-23T09:28:47.247Z,1013.08
2018-07-23T09:29:47.251Z,1013.06
2018-07-23T09:30:47.254Z,1013.05
2018-07-23T09:31:47.248Z,1013.10
2018-07-23T09:32:47.248Z,1013.04
2018-07-23T09:33:47.244Z,1013.05
2018-07-23T09:34:47.246Z,1013.00
2018-07-23T09:35:47.245Z,1013.03
2018-07-23T09:36:47.246Z,1013.04
2018-07-23T09:37:47.247Z,1013.10
2018-07-23T09:38:47.244Z,1013.17
2018-07-23T09:39:47.266Z,1013.22
2018-07-23T09:40:47.246Z,1013.20
2018-07-23T09:41:47.246Z,1013.25
2018-07-23T09:42:47.246Z,1013.34
2018-07-23T09:43:47.247Z,1013.32
2018-07-23T09:44:47.248Z,1013.35
2018-07-23T09:45:47.251Z,1013.32
2018-07-23T09:46:47.250Z,1013.34
2018-07-23T09:47:47.248Z,1013.28
2018-07-23T09:48:47.250Z,1013.36
2018-07-23T09:49:47.252Z,1013.30
2018-07-23T09:50:47.251Z,1013.27
2018-07-23T09:51:47.253Z,1013.28
2018-07-23T09:52:47.314Z,1013.34
2018-07-23T09:53:47.256Z,1013.37
2018-07-23T09:54:47.261Z,1013.37
2018-07-23T09:55:48.068Z,1013.36
2018-07-23T09:56:47.260Z,1013.31
2018-07-23T09:57:47.265Z,1013.33
2018-07-23T09:58:47.260Z,1013.36
2018-07-23T09:59:47.264Z,1013.43
2018-07-23T10:00:47.266Z,1013.48
2018-07-23T10:01:47.267Z,1013.48
2018-07-23T10:02:47.270Z,1013.50
2018-07-23T10:03:47.269Z,1013.57
2018-07-23T10:04:47.271Z,1013.54
2018-07-23T10:05:47.273Z,1013.55
2018-07-23T10:06:47.279Z,1013.61
2018-07-23T10:07:47.333Z,1013.62
2018-07-23T10:08:47.278Z,1013.61
2018-07-23T10:09:47.283Z,1013.65
2018-07-23T10:10:47.337Z,1013.68
2018-07-23T10:11:47.288Z,1013.65
2018-07-23T10:12:47.289Z,1013.75
2018-07-23T10:13:47.295Z,1013.83
2018-07-23T10:14:47.293Z,1013.89
2018-07-23T10:15:47.298Z,1014.07
2018-07-23T10:16:47.301Z,1014.21
2018-07-23T10:17:47.309Z,1014.35
2018-07-23T10:18:47.304Z,1014.64
2018-07-23T10:19:47.309Z,1014.91
2018-07-23T10:20:47.312Z,1014.95
2018-07-23T10:21:47.317Z,1014.87
2018-07-23T10:22:47.322Z,1014.76
2018-07-23T10:23:47.321Z,1014.73
2018-07-23T10:24:47.326Z,1014.78
2018-07-23T10:25:47.327Z,1014.77
2018-07-23T10:26:47.331Z,1014.83
2018-07-23T10:27:47.339Z,1014.84
2018-07-23T10:28:47.338Z,1014.87
2018-07-23T10:29:47.343Z,1014.84
2018-07-23T10:30:47.348Z,1014.82
2018-07-23T10:31:47.348Z,1014.79
2018-07-23T10:32:47.358Z,1014.75
2018-07-23T10:33:47.356Z,1014.70
2018-07-23T10:34:47.363Z,1014.67
2018-07-23T10:35:47.365Z,1014.62
2018-07-23T10:36:47.375Z,1014.57
2018-07-23T10:37:47.372Z,1014.60
2018-07-23T10:38:47.375Z,1014.59
2018-07-23T10:39:47.379Z,1014.61
2018-07-23T10:40:47.384Z,1014.60
2018-07-23T10:41:47.389Z,1014.53
2018-07-23T10:42:47.398Z,1014.44
2018-07-23T10:43:47.397Z,1014.40
2018-07-23T10:44:47.405Z,1014.35
2018-07-23T10:45:47.408Z,1014.36
2018-07-23T10:46:47.412Z,1014.31
2018-07-23T10:47:47.416Z,1014.35
2018-07-23T10:48:47.423Z,1014.29
2018-07-23T10:49:47.426Z,1014.22
2018-07-23T10:50:47.430Z,1014.21
2018-07-23T10:51:47.436Z,1014.07
2018-07-23T10:52:47.441Z,1014.03
2018-07-23T10:53:47.446Z,1014.04
2018-07-23T10:54:47.449Z,1013.97
2018-07-23T10:55:47.455Z,1013.94
2018-07-23T10:56:47.460Z,1013.93
2018-07-23T10:57:47.475Z,1013.85
2018-07-23T10:58:47.470Z,1013.85
2018-07-23T10:59:47.477Z,1013.78
2018-07-23T11:00:47.486Z,1013.74
2018-07-23T11:01:47.488Z,1013.72
2018-07-23T11:02:47.491Z,1013.71
2018-07-23T11:03:47.499Z,1011.98
2018-07-23T11:04:47.505Z,1012.02
2018-07-23T11:05:47.509Z,1012.05
2018-07-23T11:06:47.515Z,1012.06
2018-07-23T11:07:47.518Z,1012.02
2018-07-23T11:08:47.524Z,1012.05
2018-07-23T11:09:47.528Z,1012.14
2018-07-23T11:10:47.532Z,1012.12
2018-07-23T11:11:47.536Z,1012.11
2018-07-23T11:12:47.594Z,1012.10
2018-07-23T11:13:47.545Z,1012.14
2018-07-23T11:14:47.547Z,1012.09
2018-07-23T11:15:47.550Z,1012.05
2018-07-23T11:16:47.555Z,1012.07
2018-07-23T11:17:47.558Z,1012.04
2018-07-23T11:18:47.560Z,1012.09
2018-07-23T11:19:47.567Z,1012.09
2018-07-23T11:20:47.565Z,1012.09
2018-07-23T11:21:47.568Z,1012.09
2018-07-23T11:22:47.568Z,1012.06
2018-07-23T11:23:47.572Z,1012.08
2018-07-23T11:24:47.642Z,1012.09
2018-07-23T11:25:47.575Z,1012.10
2018-07-23T11:26:47.575Z,1012.08
2018-07-23T11:27:47.585Z,1012.03
2018-07-23T11:28:47.577Z,1012.06
2018-07-23T11:29:47.582Z,1012.06
2018-07-23T11:30:47.579Z,1012.08
2018-07-23T11:31:47.591Z,1012.10
2018-07-23T11:32:47.584Z,1012.09
2018-07-23T11:33:47.596Z,1012.05
2018-07-23T11:34:47.582Z,1012.08
2018-07-23T11:35:47.585Z,1012.05
2018-07-23T11:36:47.583Z,1012.05
2018-07-23T11:37:47.583Z,1011.95
2018-07-23T11:38:47.581Z,1011.92
2018-07-23T11:39:47.582Z,1011.99
2018-07-23T11:40:47.582Z,1011.98
2018-07-23T11:41:47.585Z,1012.01
2018-07-23T11:42:47.655Z,1012.06
2018-07-23T11:43:47.580Z,1012.00
2018-07-23T11:44:47.581Z,1012.01
2018-07-23T11:45:47.582Z,1012.02
2018-07-23T11:46:47.579Z,1012.03
2018-07-23T11:47:47.580Z,1012.00
2018-07-23T11:48:47.590Z,1012.03
2018-07-23T11:49:47.581Z,1012.02
2018-07-23T11:50:47.638Z,1012.04
2018-07-23T11:51:47.576Z,1012.01
2018-07-23T11:52:47.576Z,1012.08
2018-07-23T11:53:47.575Z,1012.02
2018-07-23T11:54:47.574Z,1011.99
2018-07-23T11:55:47.572Z,1012.00
2018-07-23T11:56:47.651Z,1012.01
2018-07-23T11:57:47.572Z,1012.02
2018-07-23T11:58:47.569Z,1012.02
2018-07-23T11:59:47.580Z,1012.03
2018-07-23T12:00:47.569Z,1012.05
2018-07-23T12:01:47.596Z,1012.07
2018-07-23T12:02:47.563Z,1012.11
2018-07-23T12:03:47.562Z,1012.11
2018-07-23T12:04:47.563Z,1012.13
2018-07-23T12:05:47.561Z,1012.07
2018-07-23T12:06:47.559Z,1012.07